Terminal Aerodrome Forecast
Issued by NWS Twin Cities, MN

Home | Current Version | Previous Version | Text Only | Print | Product List | Glossary On
Versions: 1 2 3 4 5 6 7 8 9 10 11 12 13 14 15 16 17
000
FTUS43 KMPX 241700
TAFEAU
TAF
KEAU 241737Z 2418/2518 13012G19KT P6SM BKN015
     FM242000 15012G20KT P6SM SCT025 SCT100
     FM250300 17008KT 6SM -SHRA BR SCT020 BKN040
      TEMPO 2503/2507 2SM -TSRA BR SCT007 OVC020CB
     FM250800 19004KT 4SM BR BKN008
     FM251400 23007KT P6SM SCT020=

USA.gov is the U.S. government's official web portal to all federal, state and local government web resources and services.